createdAt,value
2024-01-19T00:02:22.073Z,57.13
2024-01-19T00:05:46.189Z,51.70
2024-01-19T00:09:10.608Z,47.45
2024-01-19T00:12:37.470Z,41.75
2024-01-19T00:16:01.329Z,41.60
2024-01-19T00:19:27.041Z,42.07
2024-01-19T00:22:50.759Z,34.25
2024-01-19T00:26:14.708Z,31.83
2024-01-19T00:29:38.415Z,31.75
2024-01-19T00:33:02.622Z,30.20
2024-01-19T00:36:27.683Z,28.48
2024-01-19T00:39:51.519Z,20.75
2024-01-19T00:43:15.230Z,27.40
2024-01-19T00:46:39.982Z,14.70
2024-01-19T00:50:03.787Z,22.33
2024-01-19T00:53:29.272Z,21.40
2024-01-19T00:56:52.942Z,25.08
2024-01-19T01:00:17.682Z,31.67
2024-01-19T01:03:41.916Z,28.23
2024-01-19T01:07:06.354Z,29.25
2024-01-19T01:10:31.110Z,28.83
2024-01-19T01:13:55.115Z,25.60
2024-01-19T01:17:18.586Z,21.50
2024-01-19T01:20:42.693Z,23.77
2024-01-19T01:24:06.703Z,20.80
2024-01-19T01:27:32.600Z,18.93
2024-01-19T01:30:56.743Z,16.52
2024-01-19T01:34:20.759Z,20.48
2024-01-19T01:37:44.546Z,22.02
2024-01-19T01:41:09.034Z,19.43
2024-01-19T01:44:34.174Z,20.65
2024-01-19T01:47:58.119Z,18.52
2024-01-19T01:51:21.745Z,15.38
2024-01-19T01:54:45.639Z,16.33
2024-01-19T01:58:09.485Z,12.43
2024-01-19T02:01:35.808Z,14.95
2024-01-19T02:04:59.994Z,13.05
2024-01-19T02:08:24.462Z,15.80
2024-01-19T02:11:48.519Z,19.15
2024-01-19T02:15:21.484Z,17.10
2024-01-19T02:18:46.466Z,19.08
2024-01-19T02:22:10.702Z,14.83
2024-01-19T02:25:35.674Z,16.50
2024-01-19T02:28:59.673Z,17.05
2024-01-19T02:32:23.662Z,14.10
2024-01-19T02:35:47.588Z,21.27
2024-01-19T02:39:11.598Z,13.18
2024-01-19T02:42:37.521Z,15.32
2024-01-19T02:46:01.241Z,14.60
2024-01-19T02:49:25.393Z,13.13
2024-01-19T02:52:49.120Z,15.48
2024-01-19T02:56:13.274Z,13.57
2024-01-19T02:59:38.425Z,15.87
2024-01-19T03:03:02.213Z,15.30
2024-01-19T03:06:26.307Z,14.73
2024-01-19T03:09:50.407Z,23.35
2024-01-19T03:13:13.854Z,21.50
2024-01-19T03:16:42.976Z,14.63
2024-01-19T03:20:07.888Z,15.88
2024-01-19T03:23:31.576Z,22.25
2024-01-19T03:26:55.468Z,21.58
2024-01-19T03:30:19.890Z,20.08
2024-01-19T03:33:44.531Z,21.95
2024-01-19T03:37:08.192Z,17.63
2024-01-19T03:40:31.663Z,18.73
2024-01-19T03:43:55.752Z,11.98
2024-01-19T03:47:19.393Z,15.00
2024-01-19T03:50:44.731Z,21.47
2024-01-19T03:54:08.223Z,16.30
2024-01-19T03:57:32.296Z,18.83
2024-01-19T04:00:56.111Z,18.10
2024-01-19T04:04:20.332Z,18.23
2024-01-19T04:07:45.369Z,12.82
2024-01-19T04:11:09.509Z,18.40
2024-01-19T04:14:33.098Z,20.40
2024-01-19T04:17:57.333Z,20.20
2024-01-19T04:21:20.887Z,19.90
2024-01-19T04:24:45.967Z,19.67
2024-01-19T04:28:09.502Z,15.07
2024-01-19T04:31:33.486Z,12.82
2024-01-19T04:34:57.058Z,21.12
2024-01-19T04:38:20.915Z,12.93
2024-01-19T04:41:45.945Z,15.90
2024-01-19T04:45:10.553Z,21.98
2024-01-19T04:48:34.254Z,22.13
2024-01-19T04:51:59.172Z,19.83
2024-01-19T04:55:22.714Z,9.73
2024-01-19T04:58:48.067Z,20.08
2024-01-19T05:02:12.456Z,20.00
2024-01-19T05:05:37.017Z,17.65
2024-01-19T05:09:00.481Z,16.02
2024-01-19T05:12:24.695Z,18.10
2024-01-19T05:15:49.734Z,19.63
2024-01-19T05:19:13.447Z,18.40
2024-01-19T05:22:36.953Z,24.45
2024-01-19T05:26:01.276Z,17.95
2024-01-19T05:29:24.799Z,17.67
2024-01-19T05:32:50.464Z,13.65
2024-01-19T05:36:14.313Z,17.73
2024-01-19T05:39:38.083Z,13.73
2024-01-19T05:43:01.063Z,16.73
2024-01-19T05:46:24.408Z,17.42
2024-01-19T05:49:49.112Z,19.27
2024-01-19T05:53:12.592Z,17.65
2024-01-19T05:56:36.138Z,18.70
2024-01-19T06:00:00.346Z,21.02
2024-01-19T06:03:24.588Z,16.08
2024-01-19T06:06:50.619Z,16.85
2024-01-19T06:10:17.245Z,17.02
2024-01-19T06:13:42.141Z,16.02
2024-01-19T06:17:06.284Z,14.82
2024-01-19T06:20:30.746Z,19.10
2024-01-19T06:23:55.506Z,18.63
2024-01-19T06:27:21.092Z,16.27
2024-01-19T06:30:46.450Z,17.83
2024-01-19T06:34:10.348Z,17.67
2024-01-19T06:37:34.534Z,18.47
2024-01-19T06:41:00.166Z,14.63
2024-01-19T06:44:23.849Z,16.50
2024-01-19T06:47:48.328Z,17.17
2024-01-19T06:51:18.918Z,13.10
2024-01-19T06:54:42.903Z,16.60
2024-01-19T06:58:08.751Z,15.63
2024-01-19T07:01:35.557Z,15.35
2024-01-19T07:04:59.606Z,18.63
2024-01-19T07:08:23.744Z,19.77
2024-01-19T07:11:47.220Z,19.25
2024-01-19T07:15:13.245Z,21.00
2024-01-19T07:18:38.374Z,18.43
2024-01-19T07:22:02.069Z,17.60
2024-01-19T07:25:25.960Z,18.75
2024-01-19T07:28:49.818Z,22.13
2024-01-19T07:32:14.832Z,21.17
2024-01-19T07:35:40.334Z,24.05
2024-01-19T07:39:05.157Z,22.45
2024-01-19T07:42:29.237Z,20.33
2024-01-19T07:45:53.190Z,21.40
2024-01-19T07:49:22.582Z,20.98
2024-01-19T07:52:45.969Z,24.02
2024-01-19T07:56:09.326Z,23.38
2024-01-19T07:59:32.510Z,19.63
2024-01-19T08:02:56.374Z,26.40
2024-01-19T08:06:22.527Z,23.10
2024-01-19T08:09:46.998Z,13.48
2024-01-19T08:13:12.083Z,13.30
2024-01-19T08:16:36.521Z,19.00
2024-01-19T08:20:00.939Z,14.00
2024-01-19T08:23:25.569Z,14.68
2024-01-19T08:26:49.640Z,14.90
2024-01-19T08:30:14.359Z,19.02
2024-01-19T08:33:39.945Z,15.90
2024-01-19T08:37:05.105Z,15.95
2024-01-19T08:40:31.471Z,14.95
2024-01-19T08:43:55.222Z,11.95
2024-01-19T08:47:20.399Z,12.30
2024-01-19T08:50:45.537Z,15.77
2024-01-19T08:54:09.334Z,13.95
2024-01-19T08:57:34.990Z,10.90
2024-01-19T09:00:58.987Z,13.60
2024-01-19T09:04:22.129Z,13.90
2024-01-19T09:07:45.757Z,9.15
2024-01-19T09:11:08.920Z,12.63
2024-01-19T09:14:33.752Z,12.73
2024-01-19T09:17:57.172Z,12.73
2024-01-19T09:21:20.581Z,15.45
2024-01-19T09:24:45.765Z,13.88
2024-01-19T09:28:10.163Z,20.95
2024-01-19T09:31:34.554Z,15.10
2024-01-19T09:34:58.035Z,16.33
2024-01-19T09:38:20.890Z,18.17
2024-01-19T09:41:48.911Z,27.13
2024-01-19T09:45:19.410Z,21.98
2024-01-19T09:48:46.783Z,24.02
2024-01-19T09:52:17.500Z,23.20
2024-01-19T09:55:40.868Z,18.13
2024-01-19T09:59:03.924Z,16.30
2024-01-19T10:02:27.029Z,14.30
2024-01-19T10:05:52.546Z,15.68
2024-01-19T10:09:16.089Z,19.47
2024-01-19T10:12:39.966Z,16.67
2024-01-19T10:16:02.715Z,17.62
2024-01-19T10:19:26.336Z,20.23
2024-01-19T10:22:50.677Z,22.97
2024-01-19T10:26:16.135Z,12.57
2024-01-19T10:29:39.756Z,14.23
2024-01-19T10:33:06.274Z,17.35
2024-01-19T10:36:38.204Z,13.62
2024-01-19T10:40:18.940Z,19.33
2024-01-19T10:43:42.269Z,15.57
2024-01-19T10:47:08.016Z,14.60
2024-01-19T10:50:33.099Z,15.98
2024-01-19T10:53:59.053Z,10.88
2024-01-19T10:57:24.725Z,14.75
2024-01-19T11:00:49.230Z,15.80
2024-01-19T11:04:14.848Z,15.30
2024-01-19T11:07:39.029Z,13.25
2024-01-19T11:11:02.625Z,13.73
2024-01-19T11:14:29.503Z,15.77
2024-01-19T11:17:53.447Z,15.35
2024-01-19T11:21:17.691Z,14.48
2024-01-19T11:24:42.042Z,9.80
2024-01-19T11:28:11.312Z,16.48
2024-01-19T11:31:37.366Z,15.13
2024-01-19T11:35:01.325Z,16.27
2024-01-19T11:38:47.797Z,9.23
2024-01-19T11:42:14.295Z,14.25
2024-01-19T11:45:44.055Z,16.60
2024-01-19T11:49:09.266Z,16.00
2024-01-19T11:52:39.839Z,11.27
2024-01-19T11:56:03.555Z,17.02
2024-01-19T11:59:26.769Z,15.00
2024-01-19T12:02:50.155Z,21.08
2024-01-19T12:06:17.567Z,14.85
2024-01-19T12:09:40.575Z,15.55
2024-01-19T12:13:04.033Z,12.52
2024-01-19T12:16:27.302Z,12.77
2024-01-19T12:19:54.041Z,12.50
2024-01-19T12:23:20.474Z,20.83
2024-01-19T12:26:52.329Z,15.13
2024-01-19T12:30:17.100Z,9.23
2024-01-19T12:33:40.713Z,17.60
2024-01-19T12:37:03.899Z,19.33
2024-01-19T12:40:29.137Z,17.05
2024-01-19T12:43:52.329Z,11.73
2024-01-19T12:47:16.281Z,14.50
2024-01-19T12:50:40.369Z,13.73
2024-01-19T12:54:04.504Z,13.77
2024-01-19T12:57:29.689Z,13.88
2024-01-19T13:00:53.734Z,14.55
2024-01-19T13:04:18.306Z,13.53
2024-01-19T13:07:42.203Z,14.90
2024-01-19T13:11:10.402Z,13.82
2024-01-19T13:14:37.097Z,12.02
2024-01-19T13:18:11.536Z,13.55
2024-01-19T13:21:36.147Z,14.95
2024-01-19T13:25:00.277Z,12.52
2024-01-19T13:28:24.419Z,12.43
2024-01-19T13:31:49.539Z,12.85
2024-01-19T13:35:13.799Z,12.63
2024-01-19T13:38:37.491Z,13.98
2024-01-19T13:42:01.522Z,18.13
2024-01-19T13:45:25.373Z,15.02
2024-01-19T13:48:51.246Z,20.40
2024-01-19T13:52:15.110Z,22.33
2024-01-19T13:55:39.220Z,21.05
2024-01-19T13:59:02.730Z,18.45
2024-01-19T14:02:28.060Z,14.20
2024-01-19T14:05:53.739Z,20.73
2024-01-19T14:09:17.951Z,17.15
2024-01-19T14:12:41.656Z,22.92
2024-01-19T14:16:06.345Z,15.38
2024-01-19T14:19:30.161Z,19.90
2024-01-19T14:22:55.292Z,29.25
2024-01-19T14:26:21.746Z,33.47
2024-01-19T14:29:47.405Z,45.22
2024-01-19T14:33:11.737Z,34.90
2024-01-19T14:36:35.483Z,24.37
2024-01-19T14:40:01.195Z,26.60
2024-01-19T14:43:24.762Z,21.77
2024-01-19T14:46:50.204Z,16.98
2024-01-19T14:50:14.792Z,19.02
2024-01-19T14:53:39.515Z,24.17
2024-01-19T14:57:04.960Z,23.10
2024-01-19T15:00:28.864Z,29.85
2024-01-19T15:03:52.564Z,27.02
2024-01-19T15:07:18.392Z,15.40
2024-01-19T15:10:42.176Z,17.13
2024-01-19T15:14:07.699Z,20.70
2024-01-19T15:17:31.440Z,14.23
2024-01-19T15:20:55.330Z,26.65
2024-01-19T15:24:19.105Z,24.70
2024-01-19T15:27:43.097Z,24.42
2024-01-19T15:31:07.747Z,20.70
2024-01-19T15:34:31.769Z,19.25
2024-01-19T15:37:55.371Z,20.87
2024-01-19T15:41:25.580Z,18.15
2024-01-19T15:44:49.335Z,24.40
2024-01-19T15:48:14.727Z,21.90
2024-01-19T15:51:38.285Z,25.83
2024-01-19T15:55:02.381Z,24.60
2024-01-19T15:58:25.621Z,25.02
2024-01-19T16:01:50.041Z,26.50
2024-01-19T16:05:16.445Z,33.08
2024-01-19T16:08:40.295Z,27.95
2024-01-19T16:12:05.429Z,31.15
2024-01-19T16:15:28.842Z,31.70
2024-01-19T16:18:53.106Z,33.65
2024-01-19T16:22:18.491Z,30.17
2024-01-19T16:25:42.470Z,34.27
2024-01-19T16:29:06.281Z,43.10
2024-01-19T16:32:30.170Z,45.42
2024-01-19T16:35:55.910Z,49.10
2024-01-19T16:39:21.610Z,45.23
2024-01-19T16:42:45.307Z,48.15
2024-01-19T16:46:08.793Z,40.12
2024-01-19T16:49:32.367Z,43.87
2024-01-19T16:52:56.444Z,28.60
2024-01-19T16:56:21.664Z,30.83
2024-01-19T16:59:45.564Z,27.37
2024-01-19T17:03:12.255Z,32.67
2024-01-19T17:06:36.398Z,33.88
2024-01-19T17:10:00.058Z,30.62
2024-01-19T17:13:25.391Z,38.78
2024-01-19T17:16:49.397Z,36.30
2024-01-19T17:20:14.288Z,46.03
2024-01-19T17:23:39.005Z,43.97
2024-01-19T17:27:03.743Z,37.50
2024-01-19T17:30:28.972Z,36.97
2024-01-19T17:34:02.382Z,52.95
2024-01-19T17:37:32.341Z,55.88
2024-01-19T17:40:56.449Z,49.07
2024-01-19T17:44:20.291Z,47.15
2024-01-19T17:47:46.347Z,35.85
2024-01-19T17:51:10.690Z,28.15
2024-01-19T17:54:34.889Z,24.40
2024-01-19T17:57:58.976Z,30.98
2024-01-19T18:01:23.863Z,23.60
2024-01-19T18:04:50.181Z,51.23
2024-01-19T18:08:13.834Z,47.72
2024-01-19T18:11:38.661Z,31.23
2024-01-19T18:15:02.438Z,26.17
2024-01-19T18:18:31.701Z,24.40
2024-01-19T18:22:01.253Z,22.10
2024-01-19T18:25:25.752Z,30.12
2024-01-19T18:28:49.448Z,20.80
2024-01-19T18:32:14.404Z,23.17
2024-01-19T18:35:39.597Z,20.95
2024-01-19T18:39:05.347Z,20.27
2024-01-19T18:42:28.954Z,19.83
2024-01-19T18:45:52.912Z,24.37
2024-01-19T18:49:16.717Z,21.70
2024-01-19T18:52:40.847Z,21.35
2024-01-19T18:56:09.034Z,29.13
2024-01-19T18:59:33.592Z,26.73
2024-01-19T19:02:57.282Z,21.23
2024-01-19T19:06:22.630Z,34.83
2024-01-19T19:09:46.555Z,42.37
2024-01-19T19:13:12.719Z,30.90
2024-01-19T19:16:44.725Z,23.02
2024-01-19T19:20:12.016Z,16.35
2024-01-19T19:23:35.406Z,13.97
2024-01-19T19:26:59.284Z,13.75
2024-01-19T19:30:25.394Z,15.95
2024-01-19T19:33:49.450Z,14.32
2024-01-19T19:37:12.940Z,17.63
2024-01-19T19:40:36.568Z,17.77
2024-01-19T19:44:00.137Z,19.90
2024-01-19T19:47:25.936Z,17.33
2024-01-19T19:50:49.620Z,16.47
2024-01-19T19:54:13.951Z,13.02
2024-01-19T19:57:39.114Z,11.10
2024-01-19T20:01:03.289Z,10.48
2024-01-19T20:04:29.509Z,9.80
2024-01-19T20:07:52.971Z,14.63
2024-01-19T20:11:17.088Z,12.27
2024-01-19T20:14:40.611Z,13.85
2024-01-19T20:18:05.005Z,12.17
2024-01-19T20:21:30.046Z,12.48
2024-01-19T20:24:54.420Z,8.38
2024-01-19T20:28:17.897Z,10.45
2024-01-19T20:31:42.035Z,11.35
2024-01-19T20:35:07.476Z,9.50
2024-01-19T20:38:33.577Z,8.25
2024-01-19T20:41:57.674Z,10.90
2024-01-19T20:45:21.770Z,19.67
2024-01-19T20:48:45.195Z,14.60
2024-01-19T20:52:09.291Z,11.05
2024-01-19T20:55:34.868Z,7.90
2024-01-19T20:59:00.885Z,12.90
2024-01-19T21:02:25.082Z,12.60
2024-01-19T21:05:49.592Z,11.77
2024-01-19T21:09:13.199Z,11.23
2024-01-19T21:12:41.294Z,13.13
2024-01-19T21:16:07.673Z,12.02
2024-01-19T21:19:32.134Z,19.20
2024-01-19T21:22:55.949Z,16.77
2024-01-19T21:26:25.257Z,21.67
2024-01-19T21:29:50.900Z,17.40
2024-01-19T21:33:15.293Z,24.95
2024-01-19T21:36:40.270Z,21.50
2024-01-19T21:40:05.898Z,21.77
2024-01-19T21:43:29.573Z,23.83
2024-01-19T21:46:55.312Z,21.50
2024-01-19T21:50:19.355Z,23.90
2024-01-19T21:53:45.426Z,22.20
2024-01-19T21:57:09.264Z,19.20
2024-01-19T22:00:33.601Z,23.90
2024-01-19T22:03:59.012Z,20.35
2024-01-19T22:07:22.913Z,20.98
2024-01-19T22:10:47.226Z,21.83
2024-01-19T22:14:11.093Z,18.52
2024-01-19T22:17:35.144Z,20.08
2024-01-19T22:21:00.161Z,22.75
2024-01-19T22:24:24.536Z,20.73
2024-01-19T22:27:48.229Z,19.35
2024-01-19T22:31:12.982Z,14.50
2024-01-19T22:34:36.772Z,10.05
2024-01-19T22:38:02.790Z,12.30
2024-01-19T22:41:26.213Z,9.25
2024-01-19T22:44:50.294Z,15.35
2024-01-19T22:48:14.173Z,12.73
2024-01-19T22:51:38.091Z,14.93
2024-01-19T22:55:03.876Z,17.73
2024-01-19T22:58:28.219Z,32.17
2024-01-19T23:01:52.193Z,20.77
2024-01-19T23:05:16.485Z,19.20
2024-01-19T23:08:39.896Z,10.98
2024-01-19T23:12:05.883Z,16.10
2024-01-19T23:15:29.506Z,10.10
2024-01-19T23:18:55.228Z,15.60
2024-01-19T23:22:21.134Z,23.10
2024-01-19T23:25:46.477Z,12.57
2024-01-19T23:29:11.622Z,8.05
2024-01-19T23:32:35.598Z,9.18
2024-01-19T23:35:59.577Z,7.82
2024-01-19T23:39:23.814Z,7.78
2024-01-19T23:42:47.821Z,6.70
2024-01-19T23:46:13.115Z,6.40
2024-01-19T23:49:36.398Z,10.35
2024-01-19T23:53:00.429Z,13.07
2024-01-19T23:56:24.229Z,6.77
2024-01-19T23:59:49.581Z,6.43
